createdAt,value
2019-03-27T00:02:42.529Z,6.72
2019-03-27T00:13:24.046Z,6.59
2019-03-27T00:24:06.239Z,6.34
2019-03-27T00:34:50.798Z,6.12
2019-03-27T00:45:33.756Z,5.66
2019-03-27T00:56:15.967Z,4.99
2019-03-27T01:06:59.580Z,4.80
2019-03-27T01:17:45.859Z,4.33
2019-03-27T01:28:28.990Z,4.31
2019-03-27T01:39:13.436Z,4.02
2019-03-27T01:49:56.610Z,3.83
2019-03-27T02:00:41.128Z,3.72
2019-03-27T02:11:26.408Z,3.53
2019-03-27T02:22:11.240Z,3.46
2019-03-27T02:32:55.135Z,3.38
2019-03-27T02:43:40.234Z,3.52
2019-03-27T02:54:25.367Z,3.57
2019-03-27T03:05:10.271Z,3.62
2019-03-27T03:15:54.473Z,3.69
2019-03-27T03:26:38.745Z,3.76
2019-03-27T03:37:24.821Z,3.83
2019-03-27T03:48:07.860Z,3.81
2019-03-27T03:58:52.108Z,3.85
2019-03-27T04:09:36.730Z,3.93
2019-03-27T04:20:20.365Z,3.75
2019-03-27T04:31:05.471Z,3.72
2019-03-27T04:41:48.711Z,3.71
2019-03-27T04:52:33.267Z,3.73
2019-03-27T05:03:17.722Z,3.87
2019-03-27T05:14:03.929Z,3.86
2019-03-27T05:24:46.915Z,3.93
2019-03-27T05:35:25.057Z,4.11
2019-03-27T05:46:08.520Z,4.23
2019-03-27T05:56:53.098Z,4.34
2019-03-27T06:07:37.243Z,4.38
2019-03-27T06:18:22.540Z,4.56
2019-03-27T06:29:07.065Z,4.66
2019-03-27T06:39:48.913Z,4.82
2019-03-27T06:50:29.541Z,5.03
2019-03-27T07:01:13.279Z,5.17
2019-03-27T07:11:57.704Z,5.46
2019-03-27T07:22:41.302Z,5.72
2019-03-27T07:33:20.767Z,5.97
2019-03-27T07:44:06.024Z,6.18
2019-03-27T07:54:50.002Z,6.42
2019-03-27T08:05:34.095Z,6.68
2019-03-27T08:16:16.628Z,6.99
2019-03-27T08:27:00.144Z,7.10
2019-03-27T08:37:44.607Z,7.36
2019-03-27T08:48:30.516Z,7.59
2019-03-27T08:59:14.447Z,8.02
2019-03-27T09:09:59.680Z,7.85
2019-03-27T09:20:44.216Z,8.06
2019-03-27T09:31:29.084Z,8.20
2019-03-27T09:42:11.231Z,8.81
2019-03-27T09:52:49.788Z,9.03
2019-03-27T10:03:35.204Z,9.88
2019-03-27T10:14:20.224Z,10.28
2019-03-27T10:25:05.053Z,10.18
2019-03-27T10:35:49.490Z,9.64
2019-03-27T10:46:34.278Z,9.87
2019-03-27T10:57:11.180Z,9.75
2019-03-27T11:07:56.456Z,10.19
2019-03-27T11:18:32.722Z,10.24
2019-03-27T11:29:12.797Z,10.63
2019-03-27T11:39:53.304Z,10.36
2019-03-27T11:50:44.131Z,10.74
2019-03-27T12:01:10.735Z,11.35
2019-03-27T12:11:52.057Z,11.79
2019-03-27T12:22:26.959Z,11.92
2019-03-27T12:33:02.719Z,11.22
2019-03-27T12:43:41.974Z,11.10
2019-03-27T12:54:24.185Z,11.03
2019-03-27T13:04:55.205Z,10.64
2019-03-27T13:15:30.866Z,10.94
2019-03-27T13:26:11.040Z,11.23
2019-03-27T13:36:55.779Z,11.51
2019-03-27T13:47:39.315Z,12.09
2019-03-27T13:58:16.579Z,12.42
2019-03-27T14:08:58.120Z,13.02
2019-03-27T14:19:34.714Z,12.40
2019-03-27T14:30:13.951Z,12.26
2019-03-27T14:40:55.127Z,12.39
2019-03-27T14:51:35.288Z,12.32
2019-03-27T15:02:08.635Z,11.52
2019-03-27T15:12:49.177Z,11.59
2019-03-27T15:23:25.118Z,11.99
2019-03-27T15:34:03.966Z,11.88
2019-03-27T15:44:40.540Z,11.83
2019-03-27T15:55:19.413Z,11.26
2019-03-27T16:05:59.014Z,11.53
2019-03-27T16:16:39.514Z,11.47
2019-03-27T16:27:10.082Z,11.48
2019-03-27T16:37:55.719Z,11.45
2019-03-27T16:48:38.314Z,11.26
2019-03-27T16:59:20.080Z,11.20
2019-03-27T17:10:01.856Z,10.94
2019-03-27T17:20:45.007Z,10.73
2019-03-27T17:31:24.888Z,10.65
2019-03-27T17:42:03.208Z,10.43
2019-03-27T17:52:42.996Z,10.27
2019-03-27T18:03:22.129Z,10.04
2019-03-27T18:14:02.015Z,9.74
2019-03-27T18:24:42.699Z,9.56
2019-03-27T18:35:19.489Z,9.39
2019-03-27T18:45:51.875Z,9.14
2019-03-27T18:56:27.350Z,8.96
2019-03-27T19:07:02.680Z,8.81
2019-03-27T19:17:41.827Z,8.66
2019-03-27T19:28:17.207Z,8.50
2019-03-27T19:38:54.791Z,8.42
2019-03-27T19:49:28.641Z,8.27
2019-03-27T20:00:08.430Z,8.14
2019-03-27T20:10:47.413Z,7.89
2019-03-27T20:21:25.049Z,7.65
2019-03-27T20:31:56.605Z,7.34
2019-03-27T20:42:34.517Z,6.98
2019-03-27T20:53:08.874Z,6.86
2019-03-27T21:03:46.712Z,6.63
2019-03-27T21:14:26.010Z,6.45
2019-03-27T21:25:08.979Z,6.18
2019-03-27T21:35:44.854Z,5.97
2019-03-27T21:46:22.748Z,5.89
2019-03-27T21:57:00.959Z,5.74
2019-03-27T22:07:34.696Z,5.60
2019-03-27T22:18:12.929Z,5.53
2019-03-27T22:28:48.265Z,5.36
2019-03-27T22:39:30.315Z,5.32
2019-03-27T22:50:10.680Z,5.31
2019-03-27T23:00:51.864Z,5.19
2019-03-27T23:11:29.823Z,5.08
2019-03-27T23:22:12.107Z,4.98
2019-03-27T23:32:52.592Z,4.83
2019-03-27T23:43:32.697Z,4.79
2019-03-27T23:54:08.539Z,4.73
